• Join FlightAware (Why Join?)
  • Login
  • US Flag 
04:52PM EDT


 

Airport Tracker/Info


-or-


 

Live Flight TrackerFlight Track Log ✈ RPA3242 ✈ 24-May-2013 ✈ KPHL - KALB

Flight Track Log - Related Links

Times and Time Zones

All times are in EDT time to prevent confusion due to time zone crossing. See the RPA3242 flight status page for this flight to view local times or setup timezone preferences in your user account.

Time Position Orientation Groundspeed Altitude Reporting Facility
EDT Latitude Longitude Course Direction KTS MPH feet Rate Location/Type
09:40PM 39.8667 -75.2667 38° Northeast 162 186 600  Level Philadelphia TRACON
09:41PM 39.8333 -75.3000 218° Southwest 191 220 2,000 1,860 Climbing Philadelphia TRACON
09:42PM 39.7667 -75.3500 210° Southwest 278 320 4,000 2,580 Climbing Philadelphia TRACON
09:43PM 39.8055 -74.8109 105° East  Level FlightAware Approximate
09:44PM 39.7842 -74.7043 105° East  Level FlightAware Approximate
09:44PM 39.6956 -75.2306 128° Southeast 172 198 10,800  Level New York Center
09:45PM 39.8477 -74.6357 37° Northeast  Level FlightAware Approximate
09:45PM 39.7164 -75.1239 76° East 241 277 12,300  Level New York Center
09:46PM 39.9148 -74.5685 38° Northeast  Level FlightAware Approximate
09:46PM 39.7400 -74.9906 77° East 298 343 12,200  Level New York Center
09:47PM 39.7606 -74.8836 76° East 335 386 12,200 600 Level New York Center
09:48PM 39.7856 -74.7636 75° East 340 391 13,500 1,800 Climbing New York Center
09:49PM 39.8578 -74.6569 49° Northeast 341 392 15,900 1,860 Climbing New York Center
09:50PM 39.9442 -74.5694 38° Northeast 351 404 17,300 1,680 Climbing New York Center
09:51PM 40.0344 -74.4822 36° Northeast 373 429 19,300 1,680 Climbing New York Center
09:52PM 40.1269 -74.3894 37° Northeast 401 461 20,700 1,620 Climbing New York Center
09:53PM 40.2258 -74.2914 37° Northeast 421 484 22,600 1,620 Climbing New York Center
09:54PM 40.3286 -74.1958 35° Northeast 435 501 24,000 660 Climbing New York Center
09:55PM 40.4456 -74.1092 29° Northeast 457 526 24,000  Level New York Center
09:56PM 40.5669 -74.0247 28° Northeast 478 550 24,000  Level New York Center
09:59PM 40.8247 -73.8225 31° Northeast 488 562 24,000 -60 Level Boston Center
10:00PM 40.9411 -73.6739 44° Northeast 476 548 23,900  Descending Boston Center
10:01PM 41.0297 -73.5764 40° Northeast 471 542 24,000 -360 Climbing Boston Center
10:02PM 41.1244 -73.4597 43° Northeast 465 535 23,200 -1,380 Descending Boston Center
10:03PM 41.2342 -73.3206 44° Northeast 440 506 21,000 -2,040 Descending Boston Center
10:04PM 41.3242 -73.2417 33° Northeast 422 486 19,200 -1,020 Descending Boston Center
10:05PM 41.4469 -73.2625 353° North 381 438 19,000 -120 Descending Boston Center
10:06PM 41.5469 -73.3000 344° North 395 455 19,000  Level Boston Center
10:07PM 41.6611 -73.3458 343° North 395 455 19,000  Level Boston Center
10:08PM 41.7711 -73.3892 344° North 402 463 19,000 -300 Level Boston Center
10:09PM 41.8750 -73.4325 343° North 402 463 18,400 -1,080 Descending Boston Center
10:10PM 41.9747 -73.4733 343° North 390 449 16,900 -1,140 Descending Boston Center
10:10PM 42.0039 -73.4850 343° North 379 436 17,000 -840 Climbing Boston Center
10:11PM 42.0639 -73.5083 344° North 373 429 16,200 -1,500 Descending Boston Center
10:12PM 42.1617 -73.5436 345° North 364 419 14,600 -1,380 Descending Boston Center
10:13PM 42.2444 -73.5956 335° Northwest 363 418 13,300 -2,040 Descending Boston Center
10:14PM 42.3356 -73.6533 335° Northwest 309 356 10,500 -2,640 Descending Boston Center
10:15PM 42.4081 -73.6997 335° Northwest 281 323 8,200 -2,220 Descending Boston Center
10:16PM 42.4722 -73.7461 332° Northwest 261 300 6,100 -1,860 Descending Boston Center
10:17PM 42.5217 -73.7781 335° Northwest 172 198 4,500 -1,620 Descending Boston Center
10:18PM 42.5653 -73.7989 341° North 175 201 2,800 -960 Descending Boston Center
10:19PM 42.5964 -73.8022 355° North 116 133 2,600 -180 Descending Boston Center
10:20PM 42.6297 -73.8003 North 116 133 2,500 -420 Descending Boston Center
10:21PM 42.6631 -73.8039 355° North 120 138 1,800 -720 Descending Boston Center
10:22PM 42.6986 -73.8044 359° North 124 143 1,100 -720 Descending Boston Center